Pease, MN (56363)

11:48 PM CST on December 05, 2016 (GMT -0600)
Milaca Township, Foreston, MN | | Change Station

Elev 1108 ft 45.75 °N, 93.74 °W | Updated 8 seconds ago

Overcast
Overcast
34.9 °F
Feels Like 25 °F
N
15.0
Wind Variable Wind from SSW
Gusts 17.2 mph

Today
High -- | Low -- °F
--% Chance of Precip.
Yesterday
High -- | Low -- °F
Precip. -- in
Pressure 29.62 in
Visibility 10.0 miles
Clouds Overcast 2100 ft
Windchill 25 °F
Dew Point 30 °F
Humidity 83%
Rainfall 0.02 in
Snow Depth Not available.
7:40 AM 4:30 PM
Waxing Crescent, 38% visible
METAR KPNM 060535Z AUTO 22008G15KT 10SM OVC021 03/M01 A2962 RMK AO2
Pressure 29.62 in
Visibility 10.0 miles
Clouds Overcast 2100 ft
Windchill 25 °F
Dew Point 30 °F
Humidity 83%
Rainfall 0.02 in
Snow Depth Not available.
7:40 AM 4:30 PM
Waxing Crescent, 38% visible
METAR KPNM 060535Z AUTO 22008G15KT 10SM OVC021 03/M01 A2962 RMK AO2

10-Day Weather Forecast

Almanac

Astronomy

Dec. 05, 2016 Rise Set
Actual Time
Civil Twilight
Nautical Twilight
Astronomical Twilight
Moon
Length of Visible Light
Length of Day
Tomorrow will be .
, % of the Moon is Illuminated

Today's Extremes

State Highs State Lows

Community

WunderPhotos

Upload Photos

1,955,931 photos uploaded!

WunderBlog® & News

Nearby

Air Quality

  Air Quality AQ Index Pollutant
Not available.

Snow Depth

Station Depth Elevation

Earthquake Activity

City Distance Mag. Time & Date
Minimum magnitude displayed is 2.5.

Coastal Water Temperatures

Place Temperature

Stations

Nearby Weather Stations

Station Location Temp. Windchill Dew Point Humidity Wind Precip. Elev Updated Type
                   

Watches & Warnings

There are currently no watches in effect.